Cromwell, Washington
Current Conditions -  °F | °C
As of 2:53 AM on Tuesday 21 Oct 2014 (Local Time) from KTIW Reporting Station
Overcast Overcast  
Wind Chill: 55°   Ceiling: 4000
Heat Index: 55°   Visibility: 10mi
Dew Point: 49°   Wind: 10mph
Humidity: 80%   Direction: 180°S
Pressure: 29.83"   Gusts: NA
Location:  47.2986°N, 122.616°W
Report Text: KTIW 210953Z AUTO 18009KT 10SM OVC040 13/09 A2983 RMK AO2 SLP100 T01280094
Loading
Personal Weather Stations






























Interactive Weather Map
Tropical Storm Tracking
New forecast layout! Learn more

10-Day Weather Forecast

Advertisements
Track Severe Weather on mobile